Time;durP1;ratioP1;P1;durP2;ratioP2;P2;SDS_P1;SDS_P2;PMS_P1;PMS_P2;Temp;Humidity;BMP_temperature;BMP_pressure;BME280_temperature;BME280_humidity;BME280_pressure;Samples;Min_cycle;Max_cycle;Signal;HPM_P1;HPM_P2
2021/07/09 04:15:13;;;;;;;36.60;23.30;;;;;;;15.27;100.00;99056.69;6054938;23;20018;-72
2021/07/09 04:17:39;;;;;;;10.15;4.85;;;;;;;14.99;100.00;99067.19;4991861;28;20042;-72
2021/07/09 04:20:05;;;;;;;8.63;5.30;;;;;;;14.93;100.00;99059.50;4992851;28;20022;-73
2021/07/09 04:22:30;;;;;;;9.77;5.28;;;;;;;15.00;100.00;99063.66;4992725;28;20049;-73
2021/07/09 04:24:56;;;;;;;6.88;5.50;;;;;;;15.03;100.00;99068.75;4992816;28;20022;-73
2021/07/09 04:27:22;;;;;;;9.65;4.93;;;;;;;14.89;100.00;99066.59;4992627;28;20056;-73
2021/07/09 04:29:47;;;;;;;12.43;5.47;;;;;;;14.94;100.00;99070.81;5037948;23;20037;-69
2021/07/09 04:32:13;;;;;;;7.95;5.38;;;;;;;14.94;100.00;99068.19;5012104;28;20026;-72
2021/07/09 04:34:38;;;;;;;15.48;5.68;;;;;;;14.96;100.00;99076.84;5012447;28;20080;-68
2021/07/09 04:37:08;;;;;;;12.15;4.95;;;;;;;14.99;100.00;99082.84;5012175;28;20030;-69
2021/07/09 04:39:36;;;;;;;16.10;5.53;;;;;;;14.89;100.00;99086.59;4991530;28;20073;-68
2021/07/09 04:42:02;;;;;;;7.85;4.97;;;;;;;14.91;100.00;99084.81;5012369;28;20032;-71
2021/07/09 04:44:27;;;;;;;8.02;4.47;;;;;;;14.93;100.00;99088.22;5012410;28;20030;-71
2021/07/09 04:46:53;;;;;;;12.00;4.82;;;;;;;15.00;100.00;99084.53;5012128;28;20704;-71
2021/07/09 04:49:18;;;;;;;8.00;4.70;;;;;;;14.96;100.00;99080.31;5013049;28;20367;-69
2021/07/09 04:51:43;;;;;;;12.40;4.80;;;;;;;14.90;100.00;99083.13;5016269;28;20402;-72
2021/07/09 04:54:08;;;;;;;11.40;4.75;;;;;;;14.98;100.00;99086.31;5014795;28;20022;-71
2021/07/09 04:56:34;;;;;;;9.23;5.22;;;;;;;14.95;100.00;99089.03;5016046;28;20037;-68
2021/07/09 04:59:00;;;;;;;5.72;4.85;;;;;;;14.85;100.00;99091.06;5016074;28;20398;-71
2021/07/09 05:01:25;;;;;;;6.15;5.07;;;;;;;14.89;100.00;99099.66;5015984;28;20478;-68
2021/07/09 05:03:50;;;;;;;8.52;4.82;;;;;;;14.89;100.00;99100.53;5015948;28;20030;-69
2021/07/09 05:06:16;;;;;;;10.02;5.05;;;;;;;14.91;100.00;99105.69;5015804;28;20061;-68
2021/07/09 05:08:41;;;;;;;8.50;5.30;;;;;;;14.77;100.00;99102.63;5014658;28;20025;-71
2021/07/09 05:11:07;;;;;;;8.20;5.30;;;;;;;14.81;100.00;99099.03;5015824;28;20033;-72
2021/07/09 05:13:32;;;;;;;7.80;4.88;;;;;;;14.72;100.00;99110.59;5015900;28;20037;-71
2021/07/09 05:15:57;;;;;;;8.10;5.03;;;;;;;14.71;100.00;99118.47;5015748;28;20060;-71
2021/07/09 05:18:23;;;;;;;6.18;5.55;;;;;;;14.68;100.00;99108.13;5015733;28;20102;-70
2021/07/09 05:20:48;;;;;;;10.43;5.38;;;;;;;14.61;100.00;99110.91;5015667;28;20030;-71
2021/07/09 05:23:13;;;;;;;8.00;5.28;;;;;;;14.65;100.00;99109.94;5015894;28;20026;-72
2021/07/09 05:25:39;;;;;;;6.53;5.00;;;;;;;14.71;100.00;99118.47;5015609;28;20105;-71
2021/07/09 05:28:06;;;;;;;6.70;4.80;;;;;;;14.71;100.00;99114.09;5015562;28;20463;-71
2021/07/09 05:30:32;;;;;;;7.05;5.03;;;;;;;14.63;100.00;99122.16;5015768;28;20386;-68
2021/07/09 05:32:57;;;;;;;11.52;4.97;;;;;;;14.63;100.00;99116.94;5015368;28;20033;-71
2021/07/09 05:35:23;;;;;;;8.52;4.68;;;;;;;14.75;100.00;99117.50;5015259;28;20021;-71
2021/07/09 05:37:48;;;;;;;7.18;5.60;;;;;;;14.63;100.00;99126.50;5015731;28;20041;-68
2021/07/09 05:40:14;;;;;;;6.00;4.97;;;;;;;14.72;100.00;99120.19;5015171;28;20029;-73
2021/07/09 05:42:39;;;;;;;11.25;5.38;;;;;;;14.63;100.00;99127.38;5015350;28;20121;-71
2021/07/09 05:45:05;;;;;;;5.75;4.38;;;;;;;14.58;100.00;99123.19;5015202;28;20032;-71
2021/07/09 05:47:30;;;;;;;9.13;4.60;;;;;;;14.78;100.00;99130.44;5015243;28;20097;-68
2021/07/09 05:49:56;;;;;;;9.05;5.00;;;;;;;14.81;100.00;99133.81;5014896;28;20538;-71
2021/07/09 05:52:21;;;;;;;6.97;4.60;;;;;;;14.82;100.00;99134.66;5015061;28;20029;-70
2021/07/09 05:54:46;;;;;;;10.65;4.97;;;;;;;14.85;100.00;99137.19;5015019;28;20057;-72
2021/07/09 05:57:12;;;;;;;10.23;7.93;;;;;;;14.89;100.00;99139.66;5014950;28;20032;-68
2021/07/09 05:59:38;;;;;;;9.77;5.32;;;;;;;14.88;100.00;99137.06;5013274;28;20047;-69
2021/07/09 06:02:03;;;;;;;6.25;4.20;;;;;;;14.88;100.00;99142.28;5014837;28;20041;-72
2021/07/09 06:04:29;;;;;;;9.10;4.35;;;;;;;14.86;100.00;99149.31;5014760;28;20022;-69
2021/07/09 06:06:54;;;;;;;5.85;4.40;;;;;;;14.93;100.00;99145.63;5014834;28;20029;-71
2021/07/09 06:09:20;;;;;;;5.35;4.00;;;;;;;14.99;100.00;99155.91;5004050;28;20022;-72
2021/07/09 06:11:45;;;;;;;6.35;4.70;;;;;;;14.96;100.00;99155.97;5013998;28;20529;-72
2021/07/09 06:14:11;;;;;;;18.90;5.43;;;;;;;15.07;100.00;99161.72;5013205;28;20053;-72
2021/07/09 06:16:36;;;;;;;7.00;4.82;;;;;;;15.02;100.00;99166.22;5014577;28;20025;-72
2021/07/09 06:19:02;;;;;;;6.53;4.80;;;;;;;15.03;100.00;99167.94;5014445;28;20505;-70
2021/07/09 06:21:27;;;;;;;7.75;5.13;;;;;;;15.00;100.00;99168.03;5013649;28;20030;-69
2021/07/09 06:23:53;;;;;;;6.13;5.15;;;;;;;15.02;100.00;99173.22;5014215;28;20049;-71
2021/07/09 06:26:19;;;;;;;8.48;5.40;;;;;;;14.93;100.00;99176.94;5014258;28;20033;-71
2021/07/09 06:28:45;;;;;;;9.25;6.05;;;;;;;14.92;100.00;99180.44;5014350;28;20418;-68
2021/07/09 06:31:10;;;;;;;10.55;5.32;;;;;;;14.83;100.00;99185.94;5014177;28;20060;-68
2021/07/09 06:33:37;;;;;;;8.15;5.28;;;;;;;14.78;100.00;99183.44;5013274;28;20420;-72
2021/07/09 06:36:02;;;;;;;14.57;5.82;;;;;;;14.84;100.00;99177.19;5006912;28;20018;-68
2021/07/09 06:38:28;;;;;;;12.20;5.93;;;;;;;14.86;100.00;99178.88;5004843;28;20536;-70
2021/07/09 06:40:53;;;;;;;12.10;5.85;;;;;;;14.94;100.00;99189.09;5014218;28;20101;-71
2021/07/09 06:43:19;;;;;;;11.45;5.80;;;;;;;14.98;100.00;99189.84;5013967;28;20475;-68
2021/07/09 06:45:45;;;;;;;7.03;5.63;;;;;;;14.98;100.00;99190.69;5013057;28;20471;-69
2021/07/09 06:48:10;;;;;;;7.03;5.70;;;;;;;14.96;100.00;99192.50;5013821;28;20490;-69
2021/07/09 06:50:36;;;;;;;9.32;5.78;;;;;;;14.96;100.00;99202.94;5013685;28;20065;-69
2021/07/09 06:53:04;;;;;;;9.50;5.50;;;;;;;15.00;100.00;99196.75;5013983;28;20029;-69
2021/07/09 06:55:30;;;;;;;7.57;5.32;;;;;;;15.03;100.00;99199.25;5013023;28;20491;-72
2021/07/09 06:57:55;;;;;;;6.93;6.00;;;;;;;15.19;100.00;99204.03;5013826;28;20036;-72
2021/07/09 07:00:21;;;;;;;5.97;5.43;;;;;;;15.10;100.00;99205.16;5024046;28;20105;-68
2021/07/09 07:02:47;;;;;;;8.32;6.20;;;;;;;15.19;100.00;99207.50;5016463;28;20057;-72
2021/07/09 07:05:14;;;;;;;7.88;5.45;;;;;;;15.14;100.00;99212.84;5013461;28;20030;-71
2021/07/09 07:07:39;;;;;;;7.20;5.53;;;;;;;15.16;100.00;99218.88;5012790;28;20169;-72
2021/07/09 07:10:06;;;;;;;6.80;5.72;;;;;;;15.12;100.00;99214.63;5013398;28;20030;-72
2021/07/09 07:12:32;;;;;;;12.52;5.53;;;;;;;14.94;100.00;99220.41;5012461;28;20105;-70
2021/07/09 07:14:58;;;;;;;10.02;5.75;;;;;;;14.94;100.00;99219.53;5013555;28;20105;-69
2021/07/09 07:17:23;;;;;;;8.18;5.82;;;;;;;15.02;100.00;99223.63;5013295;28;20022;-68
2021/07/09 07:19:48;;;;;;;22.92;7.00;;;;;;;15.13;100.00;99221.59;5012366;28;20025;-69
2021/07/09 07:22:14;;;;;;;9.10;6.18;;;;;;;15.27;100.00;99222.91;5013395;28;20029;-73
2021/07/09 07:24:39;;;;;;;7.90;5.60;;;;;;;15.39;100.00;99230.41;5013331;28;20057;-70
2021/07/09 07:27:05;;;;;;;6.30;5.35;;;;;;;15.45;100.00;99231.97;5012781;28;20487;-69
2021/07/09 07:29:31;;;;;;;8.32;5.72;;;;;;;15.55;100.00;99234.25;5012308;28;20030;-71
2021/07/09 07:31:57;;;;;;;11.23;5.88;;;;;;;15.41;100.00;99239.03;5012261;28;20054;-69
2021/07/09 07:34:22;;;;;;;9.43;5.60;;;;;;;15.47;100.00;99235.38;5011782;28;20072;-69
2021/07/09 07:36:48;;;;;;;11.07;5.57;;;;;;;15.70;100.00;99239.94;5013000;28;20450;-71
2021/07/09 07:39:13;;;;;;;8.25;5.15;;;;;;;15.83;100.00;99238.63;5012955;28;20029;-70
2021/07/09 07:41:38;;;;;;;8.32;5.38;;;;;;;15.81;100.00;99235.19;5011408;28;20025;-70
2021/07/09 07:44:05;;;;;;;5.32;4.80;;;;;;;15.91;100.00;99239.25;5012440;28;20025;-70
2021/07/09 07:46:30;;;;;;;11.20;5.72;;;;;;;16.13;99.68;99234.16;5012634;28;20486;-70
2021/07/09 07:48:56;;;;;;;9.05;5.47;;;;;;;15.95;99.90;99243.47;5012814;28;20104;-69
2021/07/09 07:51:23;;;;;;;7.97;5.25;;;;;;;16.05;99.96;99244.91;5012799;28;20130;-71
2021/07/09 07:53:50;;;;;;;8.90;5.43;;;;;;;15.89;100.00;99243.66;5010654;28;20072;-71
2021/07/09 07:56:17;;;;;;;7.75;5.22;;;;;;;16.03;99.99;99251.06;5012463;28;20076;-69
2021/07/09 07:58:42;;;;;;;6.97;5.50;;;;;;;16.08;99.69;99243.94;5011453;28;20029;-69
2021/07/09 08:01:08;;;;;;;7.43;5.13;;;;;;;16.03;100.00;99248.44;5012553;28;20032;-70
2021/07/09 08:03:34;;;;;;;11.73;5.78;;;;;;;16.10;99.79;99248.22;5012428;28;20018;-69
2021/07/09 08:05:59;;;;;;;5.57;5.07;;;;;;;16.16;98.19;99247.16;5011677;28;20041;-69
2021/07/09 08:08:25;;;;;;;8.60;5.30;;;;;;;16.41;98.71;99252.41;5012349;28;20034;-71
2021/07/09 08:10:50;;;;;;;8.95;5.43;;;;;;;16.46;97.81;99245.25;5011801;28;20022;-69
2021/07/09 08:13:15;;;;;;;13.48;5.47;;;;;;;16.44;98.29;99244.47;5012323;28;20021;-71
2021/07/09 08:15:41;;;;;;;11.25;5.45;;;;;;;16.31;99.02;99251.00;5012188;28;20546;-69
2021/07/09 08:18:06;;;;;;;6.00;5.10;;;;;;;16.50;98.58;99244.25;5010444;28;20022;-71
2021/07/09 08:20:32;;;;;;;7.95;5.22;;;;;;;16.54;97.75;99240.63;5012358;28;20045;-70
2021/07/09 08:22:58;;;;;;;8.63;5.65;;;;;;;16.61;96.88;99234.25;5011427;28;20022;-71
2021/07/09 08:25:24;;;;;;;12.00;6.18;;;;;;;16.52;97.43;99233.72;5012190;28;20077;-70
2021/07/09 08:27:49;;;;;;;13.27;5.38;;;;;;;16.83;96.48;99228.31;5011563;28;20026;-69
2021/07/09 08:30:15;;;;;;;7.22;4.97;;;;;;;17.21;95.05;99230.38;5011742;28;20517;-69
2021/07/09 08:32:40;;;;;;;7.75;5.43;;;;;;;17.89;92.48;99233.84;5012218;28;20026;-69
2021/07/09 08:35:06;;;;;;;11.02;5.93;;;;;;;18.66;87.72;99236.72;5012061;28;20029;-69
2021/07/09 08:37:32;;;;;;;10.38;4.78;;;;;;;19.17;85.46;99232.72;5011987;28;20387;-72
2021/07/09 08:39:57;;;;;;;4.80;4.05;;;;;;;19.52;83.72;99232.84;5011201;28;20033;-69
2021/07/09 08:42:22;;;;;;;9.00;3.90;;;;;;;19.65;82.52;99234.00;5012097;28;20022;-71
2021/07/09 08:44:48;;;;;;;7.70;3.95;;;;;;;20.08;81.07;99234.56;5011924;28;20028;-72
2021/07/09 08:47:13;;;;;;;8.07;4.20;;;;;;;19.75;79.89;99235.28;5011810;28;20060;-71
2021/07/09 08:49:41;;;;;;;4.68;3.78;;;;;;;20.00;80.20;99234.06;5011895;28;20439;-72
2021/07/09 08:52:07;;;;;;;4.30;3.55;;;;;;;20.33;79.05;99236.81;5010995;28;20450;-69
2021/07/09 08:54:33;;;;;;;6.38;3.13;;;;;;;20.72;75.87;99239.22;5011870;28;20101;-71
2021/07/09 08:56:58;;;;;;;5.53;3.13;;;;;;;20.52;76.56;99239.41;4991034;28;20109;-71
2021/07/09 08:59:24;;;;;;;3.95;3.20;;;;;;;20.22;77.74;99242.63;5010209;28;20021;-69
2021/07/09 09:01:59;;;;;;;5.22;3.42;;;;;;;19.91;79.96;99245.03;5011020;28;20017;-71
2021/07/09 09:04:36;;;;;;;5.05;3.30;;;;;;;20.02;78.70;99250.66;5011412;28;20026;-69
2021/07/09 09:07:03;;;;;;;4.22;3.10;;;;;;;20.38;78.69;99252.38;5011690;28;20505;-69
2021/07/09 09:09:29;;;;;;;3.97;3.15;;;;;;;20.25;76.33;99252.97;5011664;28;20029;-72
2021/07/09 09:12:02;;;;;;;6.50;3.42;;;;;;;20.67;72.57;99251.75;5011644;28;20378;-72
2021/07/09 09:14:27;;;;;;;4.65;4.00;;;;;;;20.20;74.96;99257.63;5010927;28;20049;-72
2021/07/09 09:16:53;;;;;;;5.93;3.40;;;;;;;20.13;75.97;99261.50;5011628;28;20097;-69
2021/07/09 09:19:20;;;;;;;6.72;3.78;;;;;;;20.63;74.16;99252.84;5011537;28;20030;-71
2021/07/09 09:21:46;;;;;;;5.47;4.10;;;;;;;21.05;74.75;99251.53;5011829;28;20109;-70
2021/07/09 09:24:11;;;;;;;6.00;3.70;;;;;;;21.07;74.95;99254.94;5011518;28;20108;-69
2021/07/09 09:26:50;;;;;;;8.65;4.30;;;;;;;21.21;72.83;99257.69;5010585;28;20034;-72
2021/07/09 09:29:35;;;;;;;4.55;3.67;;;;;;;21.74;70.13;99253.91;4998123;28;20041;-69
2021/07/09 09:32:06;;;;;;;4.50;3.55;;;;;;;23.51;64.19;99249.59;5013052;28;20053;-69
2021/07/09 09:34:38;;;;;;;6.55;3.03;;;;;;;25.19;58.75;99243.69;5011505;28;20041;-69
2021/07/09 09:37:04;;;;;;;3.53;3.08;;;;;;;24.93;57.74;99247.25;5013991;28;20483;-71
2021/07/09 09:39:29;;;;;;;6.13;2.88;;;;;;;26.61;51.81;99246.50;5015028;28;20026;-69
2021/07/09 09:42:25;;;;;;;4.43;3.05;;;;;;;26.01;54.05;99254.56;5015145;28;20026;-72
2021/07/09 09:45:02;;;;;;;5.60;2.75;;;;;;;25.33;55.92;99251.47;5015128;28;20084;-69
2021/07/09 09:47:31;;;;;;;3.88;3.15;;;;;;;24.27;58.79;99257.88;5014792;28;20034;-71
2021/07/09 09:49:59;;;;;;;7.47;4.03;;;;;;;22.40;64.21;99255.47;5014047;28;20030;-71
2021/07/09 09:52:47;;;;;;;4.50;3.30;;;;;;;21.80;67.75;99256.19;5014749;28;20030;-71
2021/07/09 09:55:13;;;;;;;7.97;3.65;;;;;;;21.69;68.96;99253.31;5014914;28;20056;-71
2021/07/09 09:57:40;;;;;;;5.68;3.47;;;;;;;21.60;68.70;99253.84;5014720;28;20017;-70
2021/07/09 10:00:16;;;;;;;5.25;3.67;;;;;;;21.43;70.82;99259.22;5013925;28;20471;-69
2021/07/09 10:02:44;;;;;;;5.68;3.60;;;;;;;20.98;70.17;99245.75;5014656;28;20018;-69
2021/07/09 10:05:10;;;;;;;3.60;3.28;;;;;;;21.01;67.25;99247.38;5016720;28;20080;-69
2021/07/09 10:07:36;;;;;;;4.45;3.40;;;;;;;21.04;68.64;99244.59;5014429;28;20382;-69
2021/07/09 10:10:04;;;;;;;5.18;3.40;;;;;;;21.07;70.60;99244.41;5016174;28;20562;-69
2021/07/09 10:12:30;;;;;;;7.55;3.20;;;;;;;21.25;69.33;99242.56;5013459;28;20432;-69
2021/07/09 10:14:56;;;;;;;3.28;2.97;;;;;;;21.60;67.01;99245.94;5014542;28;20026;-70
2021/07/09 10:17:27;;;;;;;6.20;3.72;;;;;;;21.15;69.32;99247.47;5014332;28;20026;-70
2021/07/09 10:19:54;;;;;;;4.70;3.58;;;;;;;21.15;70.93;99244.84;5013132;28;20026;-70
2021/07/09 10:22:20;;;;;;;3.88;3.33;;;;;;;21.23;69.83;99240.03;5014178;28;20505;-69
2021/07/09 10:24:52;;;;;;;5.13;3.80;;;;;;;20.86;70.39;99229.75;5013672;28;20394;-69
2021/07/09 10:27:22;;;;;;;3.63;3.05;;;;;;;21.33;68.60;99234.28;5014082;28;20561;-68
2021/07/09 10:29:49;;;;;;;6.45;3.00;;;;;;;21.36;65.85;99242.84;5023413;23;21024;-74
2021/07/09 10:32:32;;;;;;;5.82;2.80;;;;;;;21.81;68.26;99242.09;4977425;28;20037;-73
2021/07/09 10:34:58;;;;;;;3.85;2.83;;;;;;;22.93;64.19;99234.72;4987468;28;20041;-73
2021/07/09 10:37:31;;;;;;;6.28;3.15;;;;;;;24.61;58.71;99235.28;4992555;28;20360;-74
2021/07/09 10:40:19;;;;;;;3.78;2.88;;;;;;;25.01;54.54;99229.88;4974978;28;20108;-73
2021/07/09 10:42:49;;;;;;;5.10;2.53;;;;;;;23.49;58.65;99238.25;4974928;28;20023;-73
2021/07/09 10:45:24;;;;;;;10.43;2.95;;;;;;;22.47;60.90;99234.81;4974167;28;20109;-73
2021/07/09 10:48:10;;;;;;;3.53;2.78;;;;;;;22.84;59.72;99239.59;4965841;28;20023;-73
2021/07/09 10:50:42;;;;;;;11.43;8.43;;;;;;;23.82;60.17;99243.19;4963089;28;20385;-74
2021/07/09 10:53:10;;;;;;;3.95;2.40;;;;;;;23.23;56.67;99235.44;4963400;28;20023;-74
2021/07/09 10:55:42;;;;;;;4.43;2.20;;;;;;;26.03;52.21;99226.13;4963894;28;20041;-74
2021/07/09 10:58:07;;;;;;;4.80;2.10;;;;;;;26.83;50.98;99227.06;4964213;28;20057;-74
2021/07/09 11:00:55;;;;;;;4.33;2.60;;;;;;;25.74;51.29;99229.06;4962574;28;20054;-74
2021/07/09 11:03:42;;;;;;;3.05;2.28;;;;;;;25.52;50.84;99234.25;4961642;28;20292;-76
2021/07/09 11:06:08;;;;;;;5.32;2.67;;;;;;;25.68;52.09;99234.00;4964580;28;20077;-75
2021/07/09 11:08:34;;;;;;;15.80;3.92;;;;;;;24.53;54.96;99244.69;4962675;28;20029;-75
2021/07/09 11:11:03;;;;;;;17.45;11.73;;;;;;;25.15;53.36;99236.88;4963848;28;21525;-75
2021/07/09 11:13:40;;;;;;;3.03;2.40;;;;;;;25.38;51.93;99232.56;4963942;28;20027;-75
2021/07/09 11:16:24;;;;;;;4.82;2.20;;;;;;;25.04;52.60;99234.09;4964275;28;21006;-73
2021/07/09 11:18:55;;;;;;;2.40;1.92;;;;;;;24.98;51.77;99234.53;4964311;28;20042;-75
2021/07/09 11:21:29;;;;;;;4.93;2.20;;;;;;;25.15;51.33;99226.28;4979882;28;20041;-74
2021/07/09 11:23:59;;;;;;;1.92;1.73;;;;;;;24.67;51.80;99233.16;4985277;28;20038;-74
2021/07/09 11:26:27;;;;;;;;;;;;;;;25.09;50.76;99230.22;4985993;28;20039;-74
2021/07/09 11:28:53;;;;;;;6.03;2.35;;;;;;;24.25;53.11;99240.38;4983419;28;19925;-74
2021/07/09 11:31:49;;;;;;;2.72;2.13;;;;;;;27.27;49.07;99222.75;4982869;28;20038;-74
2021/07/09 11:34:16;;;;;;;2.22;1.90;;;;;;;26.18;48.37;99226.78;4963674;28;20073;-74
2021/07/09 11:36:46;;;;;;;5.35;2.13;;;;;;;26.17;49.75;99219.78;4979847;28;20029;-74
2021/07/09 11:39:15;;;;;;;2.88;2.35;;;;;;;26.00;49.58;99213.91;4981899;28;20152;-75
2021/07/09 11:41:59;;;;;;;2.03;1.85;;;;;;;27.54;45.83;99210.84;4982673;28;20061;-75
2021/07/09 11:44:56;;;;;;;2.88;2.13;;;;;;;28.91;41.75;99212.66;4979350;28;20055;-75
2021/07/09 11:47:28;;;;;;;6.90;2.90;;;;;;;29.29;39.97;99204.94;4979617;28;20141;-75
2021/07/09 11:49:55;;;;;;;4.75;2.55;;;;;;;30.15;39.60;99208.78;4981663;28;20384;-75
2021/07/09 11:52:23;;;;;;;4.22;2.55;;;;;;;29.71;40.53;99205.63;4980764;28;20037;-75
2021/07/09 11:54:50;;;;;;;2.95;2.67;;;;;;;27.51;43.53;99209.31;4981820;28;20058;-75
2021/07/09 11:57:18;;;;;;;7.47;3.50;;;;;;;25.51;47.22;99209.50;4982717;28;20041;-75
2021/07/09 11:59:45;;;;;;;4.17;3.57;;;;;;;24.65;50.53;99216.50;4979809;28;20059;-75
2021/07/09 12:02:16;;;;;;;4.68;2.70;;;;;;;24.15;50.55;99212.81;4982853;28;20033;-75
2021/07/09 12:04:49;;;;;;;7.13;3.63;;;;;;;23.25;52.04;99208.91;4982899;28;20022;-75
2021/07/09 12:07:32;;;;;;;5.38;3.78;;;;;;;24.19;53.04;99203.72;4983039;28;20081;-72
2021/07/09 12:10:05;;;;;;;4.68;2.80;;;;;;;25.02;52.21;99202.38;4983684;28;20038;-73
2021/07/09 12:12:40;;;;;;;4.00;2.72;;;;;;;24.78;51.50;99207.59;4978599;28;20081;-73
2021/07/09 12:15:07;;;;;;;2.90;2.53;;;;;;;24.63;48.06;99203.38;4982001;28;20034;-73
2021/07/09 12:17:35;;;;;;;6.80;3.03;;;;;;;25.31;50.69;99200.34;4980823;28;20041;-73
2021/07/09 12:20:08;;;;;;;3.50;2.65;;;;;;;24.61;50.94;99199.97;4981353;28;20046;-73
2021/07/09 12:22:36;;;;;;;7.35;3.05;;;;;;;23.62;50.93;99196.84;4982591;28;20073;-73
2021/07/09 12:25:07;;;;;;;6.07;3.67;;;;;;;23.23;53.72;99193.16;4982395;28;20204;-73
2021/07/09 12:27:34;;;;;;;7.30;4.22;;;;;;;22.74;55.73;99195.31;4980751;28;20026;-74
2021/07/09 12:30:04;;;;;;;5.55;4.03;;;;;;;22.39;56.11;99194.81;4980250;28;20030;-72
2021/07/09 12:32:30;;;;;;;9.18;3.70;;;;;;;22.29;55.88;99195.38;4983242;28;20038;-74
2021/07/09 12:35:07;;;;;;;13.02;9.07;;;;;;;22.53;57.11;99197.47;4981746;28;20209;-74
2021/07/09 12:37:32;;;;;;;9.00;4.80;;;;;;;22.37;57.60;99196.69;4980010;28;20030;-75
2021/07/09 12:40:16;;;;;;;6.05;4.60;;;;;;;22.26;57.50;99200.81;4980371;28;20112;-74
2021/07/09 12:42:42;;;;;;;9.90;4.95;;;;;;;23.02;57.72;99202.44;4981931;28;20383;-74
2021/07/09 12:45:08;;;;;;;6.45;5.03;;;;;;;22.97;57.63;99201.88;4982054;28;20026;-74
2021/07/09 12:47:35;;;;;;;5.45;4.85;;;;;;;23.82;57.23;99201.69;4982665;28;20383;-74
2021/07/09 12:50:15;;;;;;;5.93;4.90;;;;;;;24.71;53.46;99187.78;4982865;28;20030;-73
2021/07/09 12:52:40;;;;;;;6.00;4.15;;;;;;;24.80;52.98;99195.09;4982266;28;20104;-72
2021/07/09 12:55:06;;;;;;;5.88;3.97;;;;;;;23.10;53.95;99197.50;4981410;28;20668;-72
2021/07/09 12:57:31;;;;;;;7.97;3.83;;;;;;;23.43;51.40;99198.97;4980602;28;20100;-74
2021/07/09 12:59:58;;;;;;;3.85;3.45;;;;;;;23.22;52.89;99202.03;4980035;28;20041;-74
2021/07/09 13:02:24;;;;;;;4.72;3.42;;;;;;;22.65;54.91;99199.38;4980424;28;20026;-74
2021/07/09 13:04:49;;;;;;;4.72;3.40;;;;;;;22.04;57.08;99209.09;4980510;28;20030;-74
2021/07/09 13:07:18;;;;;;;3.90;3.60;;;;;;;22.65;55.04;99215.22;4979096;28;20028;-75
2021/07/09 13:09:46;;;;;;;4.85;3.40;;;;;;;21.43;59.04;99219.66;4982228;28;20035;-74
2021/07/09 13:12:25;;;;;;;4.68;3.45;;;;;;;21.77;57.83;99206.28;4987567;28;20026;-74
2021/07/09 13:15:03;;;;;;;3.55;3.25;;;;;;;22.04;57.69;99202.97;4987674;28;20030;-74
2021/07/09 13:17:30;;;;;;;3.67;3.38;;;;;;;22.79;56.43;99188.81;4987293;28;20034;-75
2021/07/09 13:20:07;;;;;;;3.30;3.00;;;;;;;23.10;55.77;99181.63;4987571;28;20169;-74
2021/07/09 13:22:34;;;;;;;4.97;2.80;;;;;;;22.65;54.69;99186.16;4987769;28;20065;-75
2021/07/09 13:25:26;;;;;;;7.10;3.30;;;;;;;23.07;53.52;99187.97;4987234;28;20195;-74
2021/07/09 13:28:18;;;;;;;4.72;3.22;;;;;;;22.50;54.54;99180.03;4987553;28;20422;-74
2021/07/09 13:30:44;;;;;;;9.10;3.90;;;;;;;23.36;55.13;99187.94;4986223;28;20033;-74
2021/07/09 13:33:11;;;;;;;5.28;3.38;;;;;;;23.24;54.45;99194.84;4987331;28;20443;-74
2021/07/09 13:35:37;;;;;;;4.07;3.60;;;;;;;23.34;55.34;99195.94;4987719;28;20022;-74
2021/07/09 13:38:03;;;;;;;4.05;3.45;;;;;;;23.23;54.87;99192.31;4986255;28;20080;-75
2021/07/09 13:40:28;;;;;;;5.85;3.55;;;;;;;23.08;57.15;99202.03;4985149;28;20038;-75
2021/07/09 13:42:53;;;;;;;7.32;3.92;;;;;;;22.48;61.75;99204.81;4984837;28;20487;-75
2021/07/09 13:45:19;;;;;;;7.32;5.22;;;;;;;22.39;66.38;99210.66;4985779;28;20368;-75
2021/07/09 13:47:44;;;;;;;9.23;4.47;;;;;;;22.13;67.46;99213.03;4984510;28;20053;-73
2021/07/09 13:50:13;;;;;;;5.95;4.38;;;;;;;22.09;64.30;99219.38;4984487;28;20032;-74
2021/07/09 13:52:40;;;;;;;8.55;5.88;;;;;;;21.91;65.84;99221.31;4984610;28;20381;-75
2021/07/09 13:55:06;;;;;;;5.80;4.65;;;;;;;22.00;64.87;99218.16;4984831;28;20034;-73
2021/07/09 13:57:31;;;;;;;4.20;3.80;;;;;;;21.96;64.60;99215.78;4984463;28;20030;-73
2021/07/09 13:59:56;;;;;;;6.47;4.18;;;;;;;21.29;66.29;99218.59;4982012;28;20030;-75
2021/07/09 14:02:22;;;;;;;6.47;4.35;;;;;;;21.60;66.37;99206.38;4983568;28;20038;-75
2021/07/09 14:04:48;;;;;;;8.65;4.25;;;;;;;21.28;67.68;99205.50;4984462;28;20450;-74
2021/07/09 14:07:14;;;;;;;5.10;3.83;;;;;;;21.83;65.09;99204.22;4981549;28;20117;-74
2021/07/09 14:09:39;;;;;;;7.00;3.90;;;;;;;22.13;65.37;99201.63;4984145;28;20125;-72
2021/07/09 14:12:06;;;;;;;5.55;3.72;;;;;;;21.94;64.45;99209.72;4983017;28;20022;-72
2021/07/09 14:14:36;;;;;;;4.13;3.50;;;;;;;22.95;63.05;99198.47;4981318;28;20030;-73
2021/07/09 14:17:03;;;;;;;4.97;3.65;;;;;;;23.42;61.30;99192.81;4981553;28;20038;-74
2021/07/09 14:19:29;;;;;;;5.97;3.38;;;;;;;23.24;59.87;99199.28;4984793;28;20026;-72
2021/07/09 14:21:54;;;;;;;4.78;3.22;;;;;;;23.12;58.10;99187.69;4980793;28;20546;-74
2021/07/09 14:24:19;;;;;;;3.38;3.08;;;;;;;22.25;59.22;99201.75;4983265;28;20030;-75
2021/07/09 14:26:45;;;;;;;10.00;2.80;;;;;;;22.84;59.09;99191.16;4980539;28;20050;-75
2021/07/09 14:29:10;;;;;;;6.07;2.58;;;;;;;22.75;57.45;99202.31;4978740;28;20025;-75
2021/07/09 14:31:35;;;;;;;6.65;2.95;;;;;;;22.55;60.01;99190.31;4983016;28;20042;-75
2021/07/09 14:34:03;;;;;;;3.97;3.35;;;;;;;21.57;59.67;99206.56;4978621;28;20499;-75
2021/07/09 14:36:28;;;;;;;5.45;3.30;;;;;;;21.53;61.72;99212.94;4981620;28;20041;-76
2021/07/09 14:38:54;;;;;;;3.95;3.60;;;;;;;21.01;63.73;99213.13;4983953;28;21314;-75
2021/07/09 14:41:19;;;;;;;7.00;4.55;;;;;;;21.06;63.87;99211.09;4982708;28;20963;-75
2021/07/09 14:43:44;;;;;;;7.72;4.07;;;;;;;20.89;63.24;99203.25;4981786;28;20029;-75
2021/07/09 14:46:09;;;;;;;9.25;4.13;;;;;;;20.92;65.40;99193.38;4982218;28;20061;-75
2021/07/09 14:48:35;;;;;;;7.45;4.20;;;;;;;20.59;65.27;99203.91;4983363;28;20062;-75
2021/07/09 14:51:00;;;;;;;5.47;4.22;;;;;;;21.19;65.02;99196.31;4985154;28;20108;-75
2021/07/09 14:53:25;;;;;;;4.25;3.85;;;;;;;22.21;62.37;99200.25;4983252;28;20062;-75
2021/07/09 14:55:51;;;;;;;4.50;3.70;;;;;;;22.01;60.78;99200.53;4982919;28;20586;-75
2021/07/09 14:58:16;;;;;;;5.95;3.63;;;;;;;21.87;59.07;99206.59;4983465;28;20042;-75
2021/07/09 15:00:42;;;;;;;3.03;2.70;;;;;;;22.52;55.79;99196.59;4983313;28;20033;-75
2021/07/09 15:03:07;;;;;;;2.08;1.98;;;;;;;21.50;53.96;99206.03;4982824;28;20697;-75
2021/07/09 15:05:34;;;;;;;1.50;1.40;;;;;;;20.42;55.57;99215.28;4983509;28;20030;-75
2021/07/09 15:07:59;;;;;;;1.95;1.85;;;;;;;19.94;58.13;99229.13;4984669;28;20523;-74
2021/07/09 15:10:24;;;;;;;2.83;1.90;;;;;;;19.68;58.40;99226.00;4987226;28;20122;-74
2021/07/09 15:12:51;;;;;;;2.13;2.03;;;;;;;19.83;59.64;99226.19;4986798;28;20026;-74
2021/07/09 15:15:16;;;;;;;2.83;1.73;;;;;;;19.66;60.55;99219.94;4986057;28;20026;-74
2021/07/09 15:17:42;;;;;;;2.20;2.00;;;;;;;19.79;59.54;99225.47;4985381;28;20061;-74
2021/07/09 15:20:08;;;;;;;2.97;1.65;;;;;;;20.11;58.98;99221.22;4984837;28;20037;-74
2021/07/09 15:22:35;;;;;;;2.92;2.00;;;;;;;20.31;58.22;99222.00;4983195;28;20070;-74
2021/07/09 15:25:01;;;;;;;3.42;2.08;;;;;;;20.13;59.81;99227.28;4984760;28;20022;-74
2021/07/09 15:27:26;;;;;;;2.65;2.45;;;;;;;20.35;60.91;99228.81;4983697;28;20022;-74
2021/07/09 15:29:51;;;;;;;3.50;2.70;;;;;;;20.90;60.46;99212.84;4983036;28;20038;-82
2021/07/09 15:32:17;;;;;;;5.65;2.95;;;;;;;21.20;60.36;99213.81;4985461;28;20034;-82
2021/07/09 15:34:42;;;;;;;3.00;2.53;;;;;;;21.76;60.14;99212.50;4982926;28;20770;-76
2021/07/09 15:37:09;;;;;;;3.55;3.25;;;;;;;22.44;58.79;99200.69;4979240;28;20031;-80
2021/07/09 15:39:34;;;;;;;4.35;3.38;;;;;;;22.36;57.13;99205.56;4984658;28;20451;-80
2021/07/09 15:42:00;;;;;;;3.72;3.42;;;;;;;22.59;55.33;99207.69;4984780;28;20022;-80
2021/07/09 15:44:25;;;;;;;17.20;5.82;;;;;;;22.46;58.63;99207.56;4984732;28;20026;-78
2021/07/09 15:46:51;;;;;;;5.13;3.40;;;;;;;22.54;57.66;99204.47;4982045;28;20034;-80